Airport METARs not updated?


#1

Hey I have noticed a lot of the airport METARs haven’t been updated since the night of June 4. Is this just me or is everyone else getting this too?


#2

You have any examples to try? KOKV and KIAD are up to date.


#3

*KBTR Pilot Weather

KBTR 061453Z 15011G21KT 10SM SCT030 SCT040 30/22 A3006 RMK AO2 SLP176 T03000217 50011

2008/06/06 11:22
KBTR 061122Z 061212 07005KT P6SM FEW015
FM1400 14013G23KT P6SM BKN030
FM1700 15015G25KT P6SM SCT030 BKN050
FM0200 14010KT P6SM SCT050 *

Looks OK to me.


#4

They are fine now, but this morning at 2:30 when I posted this they were all on June 4 KBTR, KJFK, KIAD, and lots more of them.